Time;durP1;ratioP1;P1;durP2;ratioP2;P2;SDS_P1;SDS_P2;PMS_P1;PMS_P2;Temp;Humidity;BMP_temperature;BMP_pressure;BME280_temperature;BME280_humidity;BME280_pressure;Samples;Min_cycle;Max_cycle;Signal;HPM_P1;HPM_P2
2021/10/04 00:03:00;;;;;;;2.55;0.90;;;;;;;12.71;96.55;100992.03;6298126;28;20101;-81
2021/10/04 00:06:02;;;;;;;1.13;0.82;;;;;;;12.69;96.94;100994.78;6297727;28;20044;-81
2021/10/04 00:09:03;;;;;;;0.82;0.80;;;;;;;12.67;96.90;100982.59;6298117;28;20059;-81
2021/10/04 00:12:07;;;;;;;2.15;1.52;;;;;;;12.69;97.43;100993.94;6297006;28;20048;-80
2021/10/04 00:15:11;;;;;;;4.30;1.13;;;;;;;12.65;97.14;100990.63;6296701;28;20528;-82
2021/10/04 00:18:12;;;;;;;3.13;1.08;;;;;;;12.61;96.74;100994.38;6298205;28;20049;-82
2021/10/04 00:21:14;;;;;;;1.63;1.10;;;;;;;12.61;96.28;101001.44;6297810;28;20056;-82
2021/10/04 00:24:15;;;;;;;4.32;1.15;;;;;;;12.55;96.85;101002.66;6297828;28;20052;-82
2021/10/04 00:27:18;;;;;;;0.57;0.43;;;;;;;12.51;98.45;101024.84;6297709;28;20488;-81
2021/10/04 00:30:20;;;;;;;1.77;1.00;;;;;;;12.51;98.53;101027.47;6297660;28;20060;-80
2021/10/04 00:33:21;;;;;;;1.65;0.90;;;;;;;12.44;98.39;101021.72;6297606;28;20049;-80
2021/10/04 00:36:23;;;;;;;4.22;0.85;;;;;;;12.39;99.10;101030.81;6297621;28;20408;-81
2021/10/04 00:39:24;;;;;;;2.85;1.08;;;;;;;12.31;99.05;101040.91;6297291;28;20045;-82
2021/10/04 00:42:27;;;;;;;1.48;0.85;;;;;;;12.28;99.42;101041.94;6297501;28;20054;-80
2021/10/04 00:45:30;;;;;;;2.92;1.20;;;;;;;12.29;99.78;101050.72;6297091;28;20044;-82
2021/10/04 00:48:31;;;;;;;2.95;1.02;;;;;;;12.27;99.12;101037.63;6297721;28;20052;-82
2021/10/04 00:51:33;;;;;;;1.23;0.93;;;;;;;12.22;99.23;101044.94;6300348;28;20052;-82
2021/10/04 00:54:34;;;;;;;1.85;1.00;;;;;;;12.15;99.81;101046.19;6302385;28;20051;-80
2021/10/04 00:57:38;;;;;;;2.65;1.48;;;;;;;12.09;100.00;101034.22;6302604;28;20055;-82
2021/10/04 01:00:40;;;;;;;6.15;1.25;;;;;;;12.06;100.00;101041.44;6302422;28;20507;-81
2021/10/04 01:03:42;;;;;;;2.45;0.95;;;;;;;12.06;100.00;101055.47;6301759;28;20056;-82
2021/10/04 01:06:43;;;;;;;1.63;0.90;;;;;;;12.04;100.00;101062.59;6302118;28;20041;-81
2021/10/04 01:09:45;;;;;;;1.35;0.82;;;;;;;12.01;100.00;101075.94;6302048;28;20052;-80
2021/10/04 01:12:50;;;;;;;4.35;0.80;;;;;;;11.98;100.00;101083.16;6302015;28;20055;-81
2021/10/04 01:15:51;;;;;;;2.30;1.05;;;;;;;11.97;100.00;101090.19;6301574;28;20041;-81
2021/10/04 01:18:52;;;;;;;0.95;0.73;;;;;;;12.00;100.00;101095.31;6301599;28;20060;-79
2021/10/04 01:21:55;;;;;;;2.28;1.00;;;;;;;12.00;100.00;101103.22;6302106;28;20060;-81
2021/10/04 01:24:56;;;;;;;1.30;0.82;;;;;;;12.01;100.00;101093.53;6301474;28;20051;-81
2021/10/04 01:27:58;;;;;;;1.40;0.70;;;;;;;11.98;100.00;101084.00;6299391;28;20048;-78
2021/10/04 01:31:00;;;;;;;1.25;0.73;;;;;;;12.00;100.00;101089.19;6286448;28;20059;-81
2021/10/04 01:34:04;;;;;;;1.05;0.77;;;;;;;12.00;100.00;101086.56;6293461;28;20045;-81
2021/10/04 01:37:06;;;;;;;1.05;0.85;;;;;;;11.99;100.00;101100.63;6286177;28;20056;-81
2021/10/04 01:40:11;;;;;;;2.53;0.73;;;;;;;11.97;100.00;101102.53;6301069;28;20049;-81
2021/10/04 01:43:12;;;;;;;1.55;0.90;;;;;;;11.91;100.00;101104.56;6301312;28;20052;-81
2021/10/04 01:46:14;;;;;;;1.38;0.93;;;;;;;11.93;100.00;101104.47;6290842;28;20053;-80
2021/10/04 01:49:16;;;;;;;3.75;0.70;;;;;;;11.91;100.00;101106.34;6295304;28;20040;-81
2021/10/04 01:52:18;;;;;;;0.57;0.50;;;;;;;11.91;100.00;101114.25;6302129;22;20615;-79
2021/10/04 01:55:20;;;;;;;1.25;0.45;;;;;;;11.92;100.00;101110.66;6267877;28;20052;-78
2021/10/04 01:58:21;;;;;;;1.23;0.50;;;;;;;11.87;100.00;101126.72;6250882;28;20053;-79
2021/10/04 02:01:23;;;;;;;0.45;0.43;;;;;;;11.82;100.00;101117.31;6271395;28;20041;-78
2021/10/04 02:04:24;;;;;;;1.05;0.60;;;;;;;11.81;100.00;101105.94;6274882;28;20064;-79
2021/10/04 02:07:27;;;;;;;1.25;0.50;;;;;;;11.84;100.00;101099.69;6287594;28;20051;-79
2021/10/04 02:10:31;;;;;;;2.97;0.68;;;;;;;11.81;100.00;101100.69;6299627;28;20492;-79
2021/10/04 02:13:33;;;;;;;0.50;0.50;;;;;;;11.81;100.00;101090.16;6299280;28;20057;-79
2021/10/04 02:16:34;;;;;;;1.23;0.50;;;;;;;11.88;100.00;101099.44;6299408;28;20040;-79
2021/10/04 02:19:35;;;;;;;0.40;0.40;;;;;;;11.82;100.00;101102.41;6299143;28;20400;-78
2021/10/04 02:22:38;;;;;;;1.40;0.60;;;;;;;11.81;100.00;101103.31;6299375;28;20049;-78
2021/10/04 02:25:44;;;;;;;0.40;0.40;;;;;;;11.82;100.00;101101.53;6298880;28;20051;-79
2021/10/04 02:28:45;;;;;;;0.70;0.50;;;;;;;11.82;100.00;101107.66;6299377;28;20063;-79
2021/10/04 02:31:47;;;;;;;1.48;0.52;;;;;;;11.84;100.00;101103.16;6299097;28;20053;-78
2021/10/04 02:34:48;;;;;;;0.80;0.60;;;;;;;11.82;100.00;101097.13;6298956;28;20091;-78
2021/10/04 02:37:52;;;;;;;0.55;0.40;;;;;;;11.81;100.00;101095.41;6299061;28;20056;-78
2021/10/04 02:40:54;;;;;;;0.40;0.40;;;;;;;11.84;100.00;101091.78;6299033;28;20059;-79
2021/10/04 02:43:56;;;;;;;0.50;0.50;;;;;;;11.84;100.00;101097.91;6298770;28;20051;-78
2021/10/04 02:46:57;;;;;;;0.93;0.50;;;;;;;11.78;100.00;101090.31;6298696;28;20056;-78
2021/10/04 02:49:58;;;;;;;1.10;0.40;;;;;;;11.79;100.00;101094.63;6298836;28;20056;-78
2021/10/04 02:53:01;;;;;;;1.92;0.57;;;;;;;11.81;100.00;101092.78;6298594;28;20048;-78
2021/10/04 02:56:03;;;;;;;1.17;0.57;;;;;;;11.80;100.00;101101.59;6298446;28;20055;-78
2021/10/04 02:59:04;;;;;;;1.20;0.40;;;;;;;11.79;100.00;101120.97;6298550;28;20507;-79
2021/10/04 03:02:06;;;;;;;1.20;0.65;;;;;;;11.70;100.00;101126.69;6298800;28;20048;-79
2021/10/04 03:05:08;;;;;;;1.08;0.70;;;;;;;11.71;100.00;101117.03;6298236;28;20052;-78
2021/10/04 03:08:10;;;;;;;1.35;0.65;;;;;;;11.69;100.00;101115.31;6298345;28;20048;-78
2021/10/04 03:11:12;;;;;;;4.13;0.45;;;;;;;11.67;100.00;101113.69;6298244;28;20048;-79
2021/10/04 03:14:13;;;;;;;2.83;0.63;;;;;;;11.66;100.00;101114.63;6297661;28;20059;-78
2021/10/04 03:17:14;;;;;;;0.77;0.50;;;;;;;11.65;100.00;101121.69;6298015;28;20051;-78
2021/10/04 03:20:16;;;;;;;1.42;0.50;;;;;;;11.69;100.00;101111.84;6297963;28;20393;-78
2021/10/04 03:23:18;;;;;;;1.13;0.50;;;;;;;11.67;100.00;101113.69;6297822;28;20044;-78
2021/10/04 03:26:20;;;;;;;0.65;0.65;;;;;;;11.68;100.00;101131.22;6297874;28;20055;-78
2021/10/04 03:29:21;;;;;;;1.52;0.60;;;;;;;11.64;100.00;101124.41;6297906;28;20059;-78
2021/10/04 03:32:22;;;;;;;0.43;0.43;;;;;;;11.61;100.00;101122.75;6297499;28;20674;-79
2021/10/04 03:35:24;;;;;;;0.70;0.40;;;;;;;11.63;100.00;101122.72;6292717;28;20554;-78
2021/10/04 03:38:27;;;;;;;0.40;0.40;;;;;;;11.62;100.00;101127.09;6281418;28;20102;-78
2021/10/04 03:41:28;;;;;;;1.08;0.60;;;;;;;11.58;100.00;101124.69;6297589;28;20048;-78
2021/10/04 03:44:29;;;;;;;1.60;0.63;;;;;;;11.55;100.00;101133.63;6285216;28;20044;-78
2021/10/04 03:47:31;;;;;;;1.00;0.45;;;;;;;11.57;100.00;101142.28;6297298;28;20056;-78
2021/10/04 03:50:33;;;;;;;1.20;0.60;;;;;;;11.58;100.00;101145.75;6297324;28;20055;-79
2021/10/04 03:53:36;;;;;;;0.77;0.55;;;;;;;11.58;100.00;101140.50;6289579;28;20419;-78
2021/10/04 03:56:37;;;;;;;0.47;0.45;;;;;;;11.58;100.00;101145.75;6288911;28;20049;-79
2021/10/04 03:59:38;;;;;;;1.13;0.60;;;;;;;11.63;100.00;101146.41;6297270;28;20466;-79
2021/10/04 04:02:40;;;;;;;3.97;0.60;;;;;;;11.61;100.00;101142.97;6297236;28;20048;-78
2021/10/04 04:05:41;;;;;;;0.57;0.40;;;;;;;11.56;100.00;101145.00;6296916;28;20049;-78
2021/10/04 04:08:44;;;;;;;0.40;0.40;;;;;;;11.54;100.00;101152.97;6297000;28;20052;-79
2021/10/04 04:11:45;;;;;;;0.70;0.50;;;;;;;11.54;100.00;101154.75;6290933;28;20048;-78
2021/10/04 04:14:47;;;;;;;0.43;0.43;;;;;;;11.51;100.00;101162.81;6286889;28;20053;-78
2021/10/04 04:17:48;;;;;;;1.40;0.60;;;;;;;11.51;100.00;101162.81;6296961;28;20047;-79
2021/10/04 04:20:49;;;;;;;3.25;0.95;;;;;;;11.50;100.00;101166.38;6297047;28;20053;-79
2021/10/04 04:23:52;;;;;;;1.20;0.80;;;;;;;11.46;100.00;101172.72;6296743;28;20135;-78
2021/10/04 04:26:53;;;;;;;0.88;0.50;;;;;;;11.47;100.00;101184.94;6296389;28;20045;-79
2021/10/04 04:29:57;;;;;;;0.80;0.68;;;;;;;11.49;100.00;101183.06;6297036;28;20078;-79
2021/10/04 04:32:58;;;;;;;3.90;0.70;;;;;;;11.51;100.00;101187.34;6296962;28;20051;-79
2021/10/04 04:35:59;;;;;;;0.30;0.30;;;;;;;11.51;100.00;101195.25;6296611;28;20458;-78
2021/10/04 04:39:03;;;;;;;1.10;0.30;;;;;;;11.53;100.00;101188.09;6296554;28;20056;-78
2021/10/04 04:42:06;;;;;;;0.77;0.70;;;;;;;11.56;100.00;101206.38;6296713;28;20049;-78
2021/10/04 04:45:09;;;;;;;1.23;0.55;;;;;;;11.53;100.00;101209.16;6296335;28;20044;-79
2021/10/04 04:48:10;;;;;;;1.05;0.60;;;;;;;11.55;100.00;101211.75;6296438;28;20053;-79
2021/10/04 04:51:11;;;;;;;0.40;0.40;;;;;;;11.54;100.00;101210.03;6296479;28;20053;-77
2021/10/04 04:54:14;;;;;;;2.20;0.73;;;;;;;11.55;100.00;101204.69;6296768;28;20514;-78
2021/10/04 04:57:15;;;;;;;0.68;0.65;;;;;;;11.55;100.00;101209.09;6296958;28;20041;-78
2021/10/04 05:00:18;;;;;;;0.55;0.50;;;;;;;11.52;100.00;101209.25;6296613;28;20055;-79
2021/10/04 05:03:19;;;;;;;0.63;0.60;;;;;;;11.51;100.00;101210.19;6295747;28;20052;-79
2021/10/04 05:06:21;;;;;;;1.48;0.63;;;;;;;11.50;100.00;101208.47;6296091;28;20040;-79
2021/10/04 05:09:23;;;;;;;0.95;0.63;;;;;;;11.52;100.00;101214.50;6296013;28;20396;-79
2021/10/04 05:12:25;;;;;;;0.47;0.47;;;;;;;11.50;100.00;101206.69;6296421;28;20053;-78
2021/10/04 05:15:27;;;;;;;0.68;0.60;;;;;;;11.54;100.00;101205.63;6296230;28;20056;-79
2021/10/04 05:18:29;;;;;;;0.93;0.60;;;;;;;11.56;100.00;101208.16;6296476;28;20480;-78
2021/10/04 05:21:30;;;;;;;0.85;0.52;;;;;;;11.54;100.00;101199.50;6296645;28;20051;-78
2021/10/04 05:24:33;;;;;;;1.05;0.50;;;;;;;11.51;100.00;101207.53;6296286;28;20053;-79
2021/10/04 05:27:35;;;;;;;0.57;0.45;;;;;;;11.52;100.00;101211.88;6296273;28;20051;-78
2021/10/04 05:30:36;;;;;;;0.30;0.30;;;;;;;11.49;100.00;101207.63;6296683;28;20056;-79
2021/10/04 05:33:38;;;;;;;0.30;0.30;;;;;;;11.49;100.00;101206.75;6295927;28;20060;-78
2021/10/04 05:36:39;;;;;;;2.85;0.50;;;;;;;11.45;100.00;101213.13;6297764;28;20047;-79
2021/10/04 05:39:42;;;;;;;1.23;0.57;;;;;;;11.47;100.00;101208.63;6300737;28;20044;-79
2021/10/04 05:42:43;;;;;;;0.40;0.40;;;;;;;11.48;100.00;101210.31;6300673;28;20045;-78
2021/10/04 05:45:44;;;;;;;0.68;0.52;;;;;;;11.51;100.00;101216.28;6300488;28;20040;-79
2021/10/04 05:48:46;;;;;;;0.20;0.20;;;;;;;11.49;100.00;101210.28;6300438;28;20598;-79
2021/10/04 05:51:47;;;;;;;1.20;0.40;;;;;;;11.54;100.00;101210.88;6300442;28;20055;-79
2021/10/04 05:54:50;;;;;;;0.17;0.17;;;;;;;11.54;100.00;101212.66;6300328;28;20434;-79
2021/10/04 05:57:51;;;;;;;0.35;0.30;;;;;;;11.57;100.00;101213.34;6300414;28;20052;-78
2021/10/04 06:00:52;;;;;;;0.95;0.40;;;;;;;11.60;100.00;101222.88;6300380;28;20044;-79
2021/10/04 06:03:54;;;;;;;3.35;0.68;;;;;;;11.56;100.00;101234.50;6300222;28;20048;-78
2021/10/04 06:06:55;;;;;;;0.50;0.43;;;;;;;11.58;100.00;101237.88;6300114;28;20048;-79
2021/10/04 06:09:58;;;;;;;0.20;0.20;;;;;;;11.57;100.00;101234.41;6300156;28;20044;-79
2021/10/04 06:12:59;;;;;;;0.40;0.20;;;;;;;11.59;100.00;101251.00;6299830;28;20503;-79
2021/10/04 06:16:01;;;;;;;0.30;0.30;;;;;;;11.60;100.00;101246.56;6300056;28;20487;-78
2021/10/04 06:19:02;;;;;;;0.85;0.38;;;;;;;11.62;100.00;101256.09;6299831;28;20055;-79
2021/10/04 06:22:04;;;;;;;0.68;0.40;;;;;;;11.64;100.00;101267.41;6299860;28;20055;-80
2021/10/04 06:25:08;;;;;;;0.50;0.38;;;;;;;11.67;100.00;101275.16;6299510;28;20052;-79
2021/10/04 06:28:10;;;;;;;0.30;0.30;;;;;;;11.71;100.00;101269.72;6299927;28;20412;-79
2021/10/04 06:31:11;;;;;;;0.40;0.40;;;;;;;11.73;100.00;101286.31;6299789;28;20048;-79
2021/10/04 06:34:13;;;;;;;0.30;0.30;;;;;;;11.75;100.00;101284.44;6299301;28;20052;-79
2021/10/04 06:37:14;;;;;;;0.52;0.52;;;;;;;11.76;100.00;101289.63;6299805;28;20052;-79
2021/10/04 06:40:17;;;;;;;0.40;0.40;;;;;;;11.79;100.00;101284.22;6299185;28;20048;-79
2021/10/04 06:43:19;;;;;;;0.90;0.32;;;;;;;11.82;100.00;101281.47;6298956;28;20044;-78
2021/10/04 06:46:20;;;;;;;3.28;0.38;;;;;;;11.86;100.00;101287.44;6299031;28;20491;-79
2021/10/04 06:49:21;;;;;;;1.52;0.40;;;;;;;11.89;100.00;101308.34;6298779;28;20052;-79
2021/10/04 06:52:23;;;;;;;1.25;0.50;;;;;;;11.92;100.00;101309.06;6298872;28;20063;-78
2021/10/04 06:55:26;;;;;;;0.40;0.28;;;;;;;11.96;100.00;101329.97;6298930;28;20048;-79
2021/10/04 06:58:27;;;;;;;0.73;0.40;;;;;;;11.97;100.00;101339.56;6298701;28;20044;-78
2021/10/04 07:01:29;;;;;;;1.35;0.43;;;;;;;12.04;100.00;101343.63;6298943;28;20049;-79
2021/10/04 07:04:30;;;;;;;0.70;0.30;;;;;;;12.04;100.00;101343.63;6298525;28;20044;-79
2021/10/04 07:07:31;;;;;;;0.52;0.45;;;;;;;12.09;100.00;101346.88;6282028;28;20049;-79
2021/10/04 07:10:34;;;;;;;0.20;0.20;;;;;;;12.10;100.00;101367.88;6253930;28;20501;-79
2021/10/04 07:13:36;;;;;;;2.38;1.08;;;;;;;12.16;100.00;101369.34;6248260;28;20045;-79
2021/10/04 07:16:37;;;;;;;0.50;0.50;;;;;;;12.17;100.00;101384.22;6259439;28;20045;-79
2021/10/04 07:19:38;;;;;;;0.15;0.15;;;;;;;12.19;100.00;101380.59;6268277;28;20051;-79
2021/10/04 07:22:41;;;;;;;0.20;0.20;;;;;;;12.24;100.00;101380.34;6273518;28;20049;-78
2021/10/04 07:25:43;;;;;;;0.10;0.10;;;;;;;12.26;100.00;101382.91;6273091;28;20063;-78
2021/10/04 07:28:45;;;;;;;1.02;0.60;;;;;;;12.30;100.00;101385.31;6276365;28;20044;-79
2021/10/04 07:31:47;;;;;;;1.45;0.20;;;;;;;12.36;99.65;101373.63;6288498;28;20056;-78
2021/10/04 07:34:48;;;;;;;0.45;0.30;;;;;;;12.36;99.73;101371.84;6296345;28;20044;-79
2021/10/04 07:37:51;;;;;;;0.50;0.30;;;;;;;12.43;99.86;101375.00;6286373;28;20507;-79
2021/10/04 07:40:53;;;;;;;0.20;0.20;;;;;;;12.47;98.54;101368.66;6296910;28;20059;-79
2021/10/04 07:43:55;;;;;;;0.90;0.28;;;;;;;12.56;97.78;101369.97;6274746;28;20523;-79
2021/10/04 07:46:58;;;;;;;0.30;0.30;;;;;;;12.63;97.84;101371.34;6288994;28;20045;-79
2021/10/04 07:49:59;;;;;;;0.50;0.50;;;;;;;12.66;97.35;101376.44;6290453;28;20169;-78
2021/10/04 07:53:01;;;;;;;0.50;0.30;;;;;;;12.72;97.45;101373.53;6289444;28;20044;-78
2021/10/04 07:56:04;;;;;;;0.43;0.30;;;;;;;12.75;96.69;101389.16;6297372;28;20059;-79
2021/10/04 07:59:05;;;;;;;0.50;0.30;;;;;;;12.81;96.65;101387.97;6283545;28;20523;-79
2021/10/04 08:02:07;;;;;;;1.08;0.20;;;;;;;12.77;97.17;101382.03;6280244;28;20044;-79
2021/10/04 08:05:09;;;;;;;1.40;0.30;;;;;;;12.79;98.09;101372.25;6273440;28;20048;-79
2021/10/04 08:08:10;;;;;;;0.90;0.50;;;;;;;12.80;98.52;101387.13;6289239;28;20052;-79
2021/10/04 08:11:13;;;;;;;0.32;0.25;;;;;;;12.84;98.96;101385.19;6297343;28;20056;-79
2021/10/04 08:14:14;;;;;;;0.20;0.20;;;;;;;12.88;99.36;101384.94;6296558;28;20506;-78
2021/10/04 08:17:16;;;;;;;0.22;0.20;;;;;;;12.90;98.47;101385.75;6279800;28;20060;-79
2021/10/04 08:20:17;;;;;;;1.15;0.38;;;;;;;12.96;98.35;101392.47;6297682;28;20056;-79
2021/10/04 08:23:18;;;;;;;0.43;0.20;;;;;;;12.97;96.41;101399.44;6291547;28;20048;-79
2021/10/04 08:26:21;;;;;;;0.70;0.38;;;;;;;12.99;96.87;101394.97;6278779;28;20047;-78
2021/10/04 08:29:22;;;;;;;0.63;0.10;;;;;;;13.00;95.88;101395.81;6250002;28;20417;-80
2021/10/04 08:32:24;;;;;;;0.20;0.20;;;;;;;13.01;97.14;101381.66;6270092;28;20484;-79
2021/10/04 08:35:25;;;;;;;1.88;0.63;;;;;;;13.05;95.57;101386.69;6271613;28;20051;-80
2021/10/04 08:38:28;;;;;;;0.17;0.17;;;;;;;13.01;96.65;101389.59;6284056;28;20051;-79
2021/10/04 08:41:31;;;;;;;1.38;0.32;;;;;;;12.97;96.78;101382.75;6297128;28;20055;-77
2021/10/04 08:44:32;;;;;;;0.20;0.20;;;;;;;12.98;97.94;101376.56;6279122;28;20056;-81
2021/10/04 08:47:36;;;;;;;1.08;0.30;;;;;;;12.98;98.23;101381.81;6272123;28;20435;-78
2021/10/04 08:50:38;;;;;;;0.55;0.30;;;;;;;12.99;96.90;101383.53;6271780;28;20061;-79
2021/10/04 08:53:41;;;;;;;0.20;0.20;;;;;;;13.05;96.20;101391.97;6272180;28;20049;-78
2021/10/04 08:56:44;;;;;;;0.40;0.30;;;;;;;13.09;95.65;101393.53;6272077;28;20492;-78
2021/10/04 08:59:45;;;;;;;0.10;0.10;;;;;;;13.07;96.39;101400.66;6272189;28;20072;-77
2021/10/04 09:02:48;;;;;;;0.20;0.20;;;;;;;13.08;96.85;101409.41;6271208;28;20044;-77
2021/10/04 09:05:56;;;;;;;1.02;0.43;;;;;;;13.11;96.94;101402.19;6270898;28;20408;-78
2021/10/04 09:08:59;;;;;;;0.50;0.30;;;;;;;13.10;96.41;101403.13;6271064;28;20052;-77
2021/10/04 09:12:03;;;;;;;2.05;0.75;;;;;;;13.13;96.49;101405.63;6272930;28;20056;-77
2021/10/04 09:15:29;;;;;;;0.38;0.35;;;;;;;13.19;94.99;101399.16;6275449;28;20733;-76
2021/10/04 09:18:31;;;;;;;1.20;0.30;;;;;;;13.23;94.36;101400.72;6276007;28;20041;-77
2021/10/04 09:21:32;;;;;;;0.50;0.40;;;;;;;13.29;94.56;101389.84;6275735;28;20532;-78
2021/10/04 09:24:34;;;;;;;0.30;0.20;;;;;;;13.33;95.44;101395.81;6275503;28;20055;-78
2021/10/04 09:27:39;;;;;;;0.20;0.20;;;;;;;13.35;96.05;101397.44;6275915;28;20068;-78
2021/10/04 09:30:40;;;;;;;0.30;0.22;;;;;;;13.42;96.42;101404.06;6275885;28;20056;-78
2021/10/04 09:34:01;;;;;;;0.47;0.40;;;;;;;13.47;92.98;101397.69;6275514;28;20065;-80
2021/10/04 09:37:02;;;;;;;0.20;0.20;;;;;;;13.50;93.79;101387.81;6275394;28;20059;-79
2021/10/04 09:40:04;;;;;;;0.30;0.17;;;;;;;13.57;94.13;101393.59;6276034;28;20045;-78
2021/10/04 09:43:08;;;;;;;0.30;0.30;;;;;;;13.55;92.08;101396.34;6275437;28;20056;-76
2021/10/04 09:46:11;;;;;;;0.50;0.15;;;;;;;13.56;92.21;101394.53;6275293;28;20060;-80
2021/10/04 09:49:12;;;;;;;0.32;0.30;;;;;;;13.60;92.06;101394.28;6275290;28;20480;-80
2021/10/04 09:52:14;;;;;;;0.10;0.10;;;;;;;13.61;90.88;101384.56;6275164;28;20507;-81
2021/10/04 09:55:27;;;;;;;0.32;0.30;;;;;;;13.65;91.04;101392.22;6275034;28;20484;-80
2021/10/04 09:58:32;;;;;;;0.35;0.28;;;;;;;13.70;90.95;101394.63;6275349;28;20052;-78
2021/10/04 10:01:35;;;;;;;0.60;0.22;;;;;;;13.74;91.33;101390.03;6274874;28;20048;-79
2021/10/04 10:04:37;;;;;;;0.22;0.22;;;;;;;13.82;92.30;101407.16;6275322;28;20448;-79
2021/10/04 10:07:39;;;;;;;1.05;0.30;;;;;;;13.85;89.80;101414.03;6275196;28;20451;-78
2021/10/04 10:10:43;;;;;;;4.65;0.30;;;;;;;13.87;89.80;101410.38;6275510;28;20060;-77
2021/10/04 10:13:46;;;;;;;1.27;0.22;;;;;;;13.92;89.82;101413.59;6274532;28;20064;-80
2021/10/04 10:16:51;;;;;;;0.10;0.10;;;;;;;13.98;89.90;101420.34;6274817;28;20045;-78
2021/10/04 10:19:56;;;;;;;0.30;0.30;;;;;;;14.00;89.84;101410.53;6274404;28;20051;-78
2021/10/04 10:22:57;;;;;;;0.80;0.30;;;;;;;14.04;89.74;101416.50;6273684;28;20092;-77
2021/10/04 10:26:26;;;;;;;0.32;0.32;;;;;;;14.03;89.49;101426.19;6274774;28;20049;-78
2021/10/04 10:29:30;;;;;;;0.30;0.30;;;;;;;14.02;88.51;101419.22;6275092;28;20041;-77
2021/10/04 10:32:36;;;;;;;0.35;0.30;;;;;;;14.10;86.90;101424.94;6274885;28;20048;-78
2021/10/04 10:35:49;;;;;;;1.42;0.45;;;;;;;14.13;87.89;101423.91;6274663;28;20128;-78
2021/10/04 10:38:58;;;;;;;0.47;0.20;;;;;;;14.17;87.91;101418.38;6274280;28;20507;-77
2021/10/04 10:42:10;;;;;;;0.30;0.30;;;;;;;14.22;86.76;101420.75;6274736;28;20102;-78
2021/10/04 10:45:22;;;;;;;0.50;0.43;;;;;;;14.25;85.32;101420.53;6274501;28;20064;-80
2021/10/04 10:48:40;;;;;;;0.30;0.30;;;;;;;14.35;85.92;101428.78;6274382;28;20052;-79
2021/10/04 10:52:20;;;;;;;0.20;0.20;;;;;;;14.38;85.69;101425.97;6274015;28;20056;-80
2021/10/04 10:55:33;;;;;;;0.80;0.22;;;;;;;14.56;84.82;101411.69;6253547;28;20150;-79
2021/10/04 10:58:37;;;;;;;1.30;0.30;;;;;;;14.64;84.83;101409.44;6273636;28;20531;-79
2021/10/04 11:01:39;;;;;;;0.43;0.30;;;;;;;14.73;85.71;101415.16;6273965;28;20053;-79
2021/10/04 11:04:44;;;;;;;1.00;0.30;;;;;;;14.82;85.63;101411.94;6274093;28;20052;-79
2021/10/04 11:07:54;;;;;;;1.35;0.52;;;;;;;14.91;83.23;101417.53;6273850;28;20441;-79
2021/10/04 11:11:18;;;;;;;0.73;0.30;;;;;;;15.02;80.81;101414.22;6274233;28;20507;-79
2021/10/04 11:14:21;;;;;;;1.17;0.15;;;;;;;15.11;81.54;101421.59;6267116;28;20056;-77
2021/10/04 11:17:24;;;;;;;0.20;0.20;;;;;;;15.32;80.76;101413.28;6273184;28;20053;-79
2021/10/04 11:20:25;;;;;;;0.95;0.40;;;;;;;15.69;79.00;101404.72;6273676;28;20053;-78
2021/10/04 11:23:27;;;;;;;0.40;0.40;;;;;;;15.95;79.17;101415.44;6273337;28;20057;-78
2021/10/04 11:26:29;;;;;;;0.10;0.10;;;;;;;16.09;77.25;101419.84;6273303;28;20397;-79
2021/10/04 11:29:31;;;;;;;0.52;0.20;;;;;;;16.08;77.09;101404.88;6273519;28;20049;-78
2021/10/04 11:32:34;;;;;;;0.45;0.30;;;;;;;16.18;78.82;101395.38;6273299;28;20531;-78
2021/10/04 11:35:35;;;;;;;2.95;0.52;;;;;;;15.98;77.13;101399.31;6288967;28;20055;-80
2021/10/04 11:38:45;;;;;;;0.20;0.20;;;;;;;15.89;77.52;101407.88;6297819;28;20055;-78
2021/10/04 11:41:48;;;;;;;;;;;;;;;15.60;76.21;101405.28;6298050;28;20064;-79
2021/10/04 11:44:49;;;;;;;0.20;0.15;;;;;;;15.52;77.11;101407.56;6297529;28;20307;-80
2021/10/04 11:47:52;;;;;;;0.40;0.30;;;;;;;15.53;76.71;101409.25;6297593;28;20049;-79
2021/10/04 11:50:54;;;;;;;0.73;0.30;;;;;;;15.49;78.10;101405.13;6297773;28;20426;-78
2021/10/04 11:53:55;;;;;;;2.97;0.17;;;;;;;15.59;78.98;101406.25;6293315;28;20045;-82
2021/10/04 11:56:57;;;;;;;1.55;0.30;;;;;;;15.62;78.92;101405.16;6272760;28;20408;-81
2021/10/04 12:00:00;;;;;;;1.55;0.30;;;;;;;15.83;77.43;101413.59;6272312;28;20041;-80
2021/10/04 12:03:02;;;;;;;0.35;0.25;;;;;;;16.33;75.39;101410.25;6272612;28;20488;-82
2021/10/04 12:06:05;;;;;;;0.60;0.28;;;;;;;16.57;76.43;101405.09;6272522;28;20057;-81
2021/10/04 12:09:08;;;;;;;0.90;0.45;;;;;;;16.62;77.78;101415.41;6285311;28;20048;-80
2021/10/04 12:12:10;;;;;;;0.10;0.10;;;;;;;16.84;76.68;101406.84;6288921;28;20563;-80
2021/10/04 12:15:11;;;;;;;0.22;0.20;;;;;;;16.86;73.30;101408.44;6288446;28;20045;-80
2021/10/04 12:18:16;;;;;;;1.48;0.57;;;;;;;16.81;74.72;101407.09;6294824;28;20055;-80
2021/10/04 12:21:20;;;;;;;0.40;0.30;;;;;;;16.69;74.43;101406.91;6282882;28;20051;-80
2021/10/04 12:24:24;;;;;;;0.38;0.28;;;;;;;16.64;73.58;101405.53;6288108;28;20044;-79
2021/10/04 12:27:25;;;;;;;0.30;0.30;;;;;;;16.59;75.29;101400.53;6296510;28;20060;-79
2021/10/04 12:30:41;;;;;;;1.20;0.20;;;;;;;16.67;73.76;101394.72;6296781;28;20126;-80
2021/10/04 12:33:48;;;;;;;0.90;0.43;;;;;;;17.04;72.46;101384.25;6295477;28;20564;-79
2021/10/04 12:36:50;;;;;;;0.32;0.32;;;;;;;17.54;71.58;101391.25;6295790;28;20052;-79
2021/10/04 12:39:52;;;;;;;1.02;0.45;;;;;;;17.98;73.02;101397.78;6297684;28;20048;-80
2021/10/04 12:42:59;;;;;;;0.63;0.40;;;;;;;18.20;72.20;101392.56;6297533;28;20059;-80
2021/10/04 12:46:07;;;;;;;0.52;0.40;;;;;;;18.15;68.65;101380.59;6296418;28;20045;-79
2021/10/04 12:49:21;;;;;;;3.08;0.73;;;;;;;17.87;67.78;101387.13;6296736;28;20051;-78
2021/10/04 12:52:24;;;;;;;1.08;0.20;;;;;;;17.91;70.60;101391.25;6296994;28;20040;-79
2021/10/04 12:55:26;;;;;;;0.20;0.10;;;;;;;17.83;66.81;101383.81;6296332;28;20412;-80
2021/10/04 12:58:29;;;;;;;1.75;0.40;;;;;;;17.66;69.37;101377.06;6296626;28;20507;-80
2021/10/04 13:01:30;;;;;;;1.65;0.20;;;;;;;17.54;69.78;101375.31;6297342;28;20052;-79
2021/10/04 13:04:35;;;;;;;1.55;0.32;;;;;;;17.69;73.30;101371.53;6297722;28;20048;-79
2021/10/04 13:07:37;;;;;;;0.32;0.30;;;;;;;17.82;69.45;101366.19;6298317;28;20048;-79
2021/10/04 13:10:38;;;;;;;0.75;0.30;;;;;;;17.85;68.22;101383.72;6291525;28;20049;-80
2021/10/04 13:13:40;;;;;;;0.17;0.17;;;;;;;17.92;66.43;101369.00;6287762;28;20036;-79
2021/10/04 13:16:41;;;;;;;1.48;0.30;;;;;;;18.35;67.02;101366.63;6299823;28;20059;-78
2021/10/04 13:19:47;;;;;;;0.25;0.20;;;;;;;18.84;64.52;101365.53;6297726;28;20053;-80
2021/10/04 13:22:49;;;;;;;0.50;0.30;;;;;;;19.03;61.63;101356.97;6288577;28;20052;-79
2021/10/04 13:25:50;;;;;;;0.60;0.20;;;;;;;18.87;60.71;101359.97;6286930;28;20129;-79
2021/10/04 13:28:52;;;;;;;0.35;0.28;;;;;;;18.83;62.08;101365.66;6288148;28;20051;-78
2021/10/04 13:31:54;;;;;;;0.55;0.35;;;;;;;18.78;63.09;101365.16;6288149;28;20052;-78
2021/10/04 13:34:56;;;;;;;0.75;0.55;;;;;;;18.94;60.20;101352.31;6288137;28;20602;-79
2021/10/04 13:37:58;;;;;;;0.13;0.13;;;;;;;19.03;62.71;101362.28;6296900;28;20051;-78
2021/10/04 13:40:59;;;;;;;3.58;0.88;;;;;;;18.92;65.74;101362.25;6282159;28;20053;-79
2021/10/04 13:44:01;;;;;;;4.28;0.28;;;;;;;18.66;62.81;101356.28;6296820;28;20044;-79
2021/10/04 13:47:02;;;;;;;0.28;0.20;;;;;;;18.48;61.80;101354.06;6297000;28;20052;-77
2021/10/04 13:50:08;;;;;;;0.20;0.20;;;;;;;18.64;60.66;101355.56;6296948;28;20060;-78
2021/10/04 13:53:09;;;;;;;1.02;0.60;;;;;;;18.84;60.16;101348.69;6296839;22;20389;-78
2021/10/04 13:56:10;;;;;;;0.20;0.20;;;;;;;19.15;60.58;101352.44;6286864;28;20049;-78
2021/10/04 13:59:12;;;;;;;1.33;0.45;;;;;;;19.23;59.84;101350.03;6312927;28;20055;-78
2021/10/04 14:02:13;;;;;;;0.30;0.25;;;;;;;19.23;59.42;101355.34;6314123;28;20412;-77
2021/10/04 14:05:16;;;;;;;2.53;0.25;;;;;;;19.20;57.84;101358.25;6311749;28;20055;-77
2021/10/04 14:08:18;;;;;;;1.15;0.43;;;;;;;19.26;54.48;101349.78;6310736;28;20049;-79